sensor_id;sensor_type;location;lat;lon;timestamp;P1;durP1;ratioP1;P2;durP2;ratioP2
41289;SDS011;36117;46.680;11.154;2022-10-24T00:00:39;4.50;;;2.60;;
41289;SDS011;36117;46.680;11.154;2022-10-24T00:03:06;5.25;;;2.92;;
41289;SDS011;36117;46.680;11.154;2022-10-24T00:05:32;9.85;;;3.17;;
41289;SDS011;36117;46.680;11.154;2022-10-24T00:07:58;8.35;;;3.45;;
41289;SDS011;36117;46.680;11.154;2022-10-24T00:10:24;4.97;;;2.42;;
41289;SDS011;36117;46.680;11.154;2022-10-24T00:12:51;5.65;;;2.28;;
41289;SDS011;36117;46.680;11.154;2022-10-24T00:15:18;4.43;;;2.45;;
41289;SDS011;36117;46.680;11.154;2022-10-24T00:17:43;4.68;;;2.17;;
41289;SDS011;36117;46.680;11.154;2022-10-24T00:20:10;5.07;;;2.28;;
41289;SDS011;36117;46.680;11.154;2022-10-24T00:22:36;5.85;;;2.63;;
41289;SDS011;36117;46.680;11.154;2022-10-24T00:25:02;10.68;;;2.55;;
41289;SDS011;36117;46.680;11.154;2022-10-24T00:27:28;4.15;;;2.10;;
41289;SDS011;36117;46.680;11.154;2022-10-24T00:29:54;4.10;;;2.20;;
41289;SDS011;36117;46.680;11.154;2022-10-24T00:32:19;4.93;;;2.35;;
41289;SDS011;36117;46.680;11.154;2022-10-24T00:34:45;6.53;;;2.38;;
41289;SDS011;36117;46.680;11.154;2022-10-24T00:37:11;3.88;;;2.10;;
41289;SDS011;36117;46.680;11.154;2022-10-24T00:39:37;4.55;;;2.28;;
41289;SDS011;36117;46.680;11.154;2022-10-24T00:42:03;14.48;;;2.80;;
41289;SDS011;36117;46.680;11.154;2022-10-24T00:44:30;7.38;;;2.78;;
41289;SDS011;36117;46.680;11.154;2022-10-24T00:47:00;8.23;;;2.53;;
41289;SDS011;36117;46.680;11.154;2022-10-24T00:50:11;3.83;;;1.90;;
41289;SDS011;36117;46.680;11.154;2022-10-24T00:52:41;11.52;;;2.05;;
41289;SDS011;36117;46.680;11.154;2022-10-24T00:55:10;6.65;;;2.45;;
41289;SDS011;36117;46.680;11.154;2022-10-24T00:57:47;6.07;;;2.70;;
41289;SDS011;36117;46.680;11.154;2022-10-24T01:00:19;7.32;;;2.40;;
41289;SDS011;36117;46.680;11.154;2022-10-24T01:02:49;3.97;;;2.45;;
41289;SDS011;36117;46.680;11.154;2022-10-24T01:05:16;6.22;;;2.55;;
41289;SDS011;36117;46.680;11.154;2022-10-24T01:16:15;5.03;;;2.20;;
41289;SDS011;36117;46.680;11.154;2022-10-24T01:21:57;9.65;;;2.67;;
41289;SDS011;36117;46.680;11.154;2022-10-24T01:27:24;3.03;;;2.20;;
41289;SDS011;36117;46.680;11.154;2022-10-24T01:30:01;3.97;;;2.30;;
41289;SDS011;36117;46.680;11.154;2022-10-24T01:38:05;4.53;;;2.70;;
41289;SDS011;36117;46.680;11.154;2022-10-24T01:43:02;4.78;;;2.78;;
41289;SDS011;36117;46.680;11.154;2022-10-24T01:45:35;6.47;;;2.85;;
41289;SDS011;36117;46.680;11.154;2022-10-24T01:48:04;4.40;;;2.50;;
41289;SDS011;36117;46.680;11.154;2022-10-24T01:50:34;3.05;;;2.15;;
41289;SDS011;36117;46.680;11.154;2022-10-24T01:53:02;4.25;;;2.13;;
41289;SDS011;36117;46.680;11.154;2022-10-24T01:55:30;4.10;;;2.22;;
41289;SDS011;36117;46.680;11.154;2022-10-24T01:57:57;8.20;;;2.88;;
41289;SDS011;36117;46.680;11.154;2022-10-24T02:00:24;3.50;;;2.10;;
41289;SDS011;36117;46.680;11.154;2022-10-24T02:02:54;4.30;;;2.15;;
41289;SDS011;36117;46.680;11.154;2022-10-24T02:08:09;4.15;;;3.13;;
41289;SDS011;36117;46.680;11.154;2022-10-24T02:10:39;9.65;;;3.22;;
41289;SDS011;36117;46.680;11.154;2022-10-24T02:13:13;4.97;;;3.25;;
41289;SDS011;36117;46.680;11.154;2022-10-24T02:15:48;4.68;;;2.17;;
41289;SDS011;36117;46.680;11.154;2022-10-24T02:18:17;4.95;;;2.75;;
41289;SDS011;36117;46.680;11.154;2022-10-24T02:20:46;5.80;;;2.78;;
41289;SDS011;36117;46.680;11.154;2022-10-24T02:26:22;4.68;;;3.00;;
41289;SDS011;36117;46.680;11.154;2022-10-24T02:29:10;7.43;;;2.78;;
41289;SDS011;36117;46.680;11.154;2022-10-24T02:31:41;5.80;;;3.45;;
41289;SDS011;36117;46.680;11.154;2022-10-24T02:34:11;5.28;;;3.03;;
41289;SDS011;36117;46.680;11.154;2022-10-24T02:36:38;5.30;;;2.60;;
41289;SDS011;36117;46.680;11.154;2022-10-24T02:39:06;9.75;;;2.85;;
41289;SDS011;36117;46.680;11.154;2022-10-24T02:41:34;6.85;;;2.47;;
41289;SDS011;36117;46.680;11.154;2022-10-24T02:44:01;6.32;;;2.80;;
41289;SDS011;36117;46.680;11.154;2022-10-24T02:46:29;7.88;;;3.03;;
41289;SDS011;36117;46.680;11.154;2022-10-24T02:48:57;3.80;;;2.47;;
41289;SDS011;36117;46.680;11.154;2022-10-24T02:51:26;6.38;;;3.15;;
41289;SDS011;36117;46.680;11.154;2022-10-24T02:53:58;12.32;;;2.90;;
41289;SDS011;36117;46.680;11.154;2022-10-24T02:56:25;9.30;;;2.97;;
41289;SDS011;36117;46.680;11.154;2022-10-24T02:58:50;5.70;;;2.78;;
41289;SDS011;36117;46.680;11.154;2022-10-24T03:01:16;5.13;;;2.72;;
41289;SDS011;36117;46.680;11.154;2022-10-24T03:03:42;3.38;;;2.58;;
41289;SDS011;36117;46.680;11.154;2022-10-24T03:06:10;8.07;;;2.92;;
41289;SDS011;36117;46.680;11.154;2022-10-24T03:08:39;6.10;;;2.97;;
41289;SDS011;36117;46.680;11.154;2022-10-24T03:11:04;6.13;;;3.00;;
41289;SDS011;36117;46.680;11.154;2022-10-24T03:13:30;5.63;;;2.20;;
41289;SDS011;36117;46.680;11.154;2022-10-24T03:15:56;5.18;;;2.42;;
41289;SDS011;36117;46.680;11.154;2022-10-24T03:18:22;5.43;;;2.58;;
41289;SDS011;36117;46.680;11.154;2022-10-24T03:20:48;4.35;;;2.60;;
41289;SDS011;36117;46.680;11.154;2022-10-24T03:23:13;16.17;;;2.55;;
41289;SDS011;36117;46.680;11.154;2022-10-24T03:25:40;7.88;;;2.38;;
41289;SDS011;36117;46.680;11.154;2022-10-24T03:28:06;10.63;;;2.80;;
41289;SDS011;36117;46.680;11.154;2022-10-24T03:30:32;5.30;;;2.42;;
41289;SDS011;36117;46.680;11.154;2022-10-24T03:32:57;9.73;;;2.40;;
41289;SDS011;36117;46.680;11.154;2022-10-24T03:35:23;18.38;;;5.72;;
41289;SDS011;36117;46.680;11.154;2022-10-24T03:37:49;6.18;;;3.08;;
41289;SDS011;36117;46.680;11.154;2022-10-24T03:40:15;4.88;;;2.53;;
41289;SDS011;36117;46.680;11.154;2022-10-24T03:42:41;10.73;;;3.20;;
41289;SDS011;36117;46.680;11.154;2022-10-24T03:45:07;6.00;;;2.17;;
41289;SDS011;36117;46.680;11.154;2022-10-24T03:47:33;6.60;;;2.95;;
41289;SDS011;36117;46.680;11.154;2022-10-24T03:49:58;5.82;;;3.03;;
41289;SDS011;36117;46.680;11.154;2022-10-24T03:52:24;9.15;;;3.00;;
41289;SDS011;36117;46.680;11.154;2022-10-24T03:54:50;3.05;;;2.55;;
41289;SDS011;36117;46.680;11.154;2022-10-24T03:57:16;6.40;;;2.10;;
41289;SDS011;36117;46.680;11.154;2022-10-24T03:59:42;3.65;;;2.30;;
41289;SDS011;36117;46.680;11.154;2022-10-24T04:02:07;4.70;;;2.90;;
41289;SDS011;36117;46.680;11.154;2022-10-24T04:04:33;5.78;;;2.78;;
41289;SDS011;36117;46.680;11.154;2022-10-24T04:06:59;5.97;;;2.97;;
41289;SDS011;36117;46.680;11.154;2022-10-24T04:09:25;5.20;;;3.22;;
41289;SDS011;36117;46.680;11.154;2022-10-24T04:11:51;4.95;;;2.80;;
41289;SDS011;36117;46.680;11.154;2022-10-24T04:14:18;7.43;;;3.30;;
41289;SDS011;36117;46.680;11.154;2022-10-24T04:16:47;5.65;;;3.35;;
41289;SDS011;36117;46.680;11.154;2022-10-24T04:19:13;5.93;;;2.95;;
41289;SDS011;36117;46.680;11.154;2022-10-24T04:21:42;9.13;;;3.17;;
41289;SDS011;36117;46.680;11.154;2022-10-24T04:24:08;5.68;;;2.55;;
41289;SDS011;36117;46.680;11.154;2022-10-24T04:26:35;3.95;;;2.42;;
41289;SDS011;36117;46.680;11.154;2022-10-24T04:29:01;6.10;;;2.50;;
41289;SDS011;36117;46.680;11.154;2022-10-24T04:31:27;6.88;;;3.13;;
41289;SDS011;36117;46.680;11.154;2022-10-24T04:33:53;12.95;;;2.63;;
41289;SDS011;36117;46.680;11.154;2022-10-24T04:36:18;6.00;;;2.85;;
41289;SDS011;36117;46.680;11.154;2022-10-24T04:38:45;5.22;;;2.53;;
41289;SDS011;36117;46.680;11.154;2022-10-24T04:41:11;6.70;;;2.63;;
41289;SDS011;36117;46.680;11.154;2022-10-24T04:43:37;7.38;;;2.55;;
41289;SDS011;36117;46.680;11.154;2022-10-24T04:46:03;9.23;;;2.53;;
41289;SDS011;36117;46.680;11.154;2022-10-24T04:48:29;5.43;;;2.50;;
41289;SDS011;36117;46.680;11.154;2022-10-24T04:50:55;7.53;;;2.95;;
41289;SDS011;36117;46.680;11.154;2022-10-24T04:53:20;5.25;;;2.75;;
41289;SDS011;36117;46.680;11.154;2022-10-24T04:55:46;6.65;;;2.47;;
41289;SDS011;36117;46.680;11.154;2022-10-24T04:58:12;8.18;;;2.70;;
41289;SDS011;36117;46.680;11.154;2022-10-24T05:00:37;4.18;;;2.83;;
41289;SDS011;36117;46.680;11.154;2022-10-24T05:03:03;5.28;;;2.65;;
41289;SDS011;36117;46.680;11.154;2022-10-24T05:05:29;5.13;;;2.80;;
41289;SDS011;36117;46.680;11.154;2022-10-24T05:07:55;6.03;;;2.92;;
41289;SDS011;36117;46.680;11.154;2022-10-24T05:10:21;6.40;;;3.17;;
41289;SDS011;36117;46.680;11.154;2022-10-24T05:12:47;4.63;;;2.92;;
41289;SDS011;36117;46.680;11.154;2022-10-24T05:15:13;5.75;;;2.88;;
41289;SDS011;36117;46.680;11.154;2022-10-24T05:17:39;7.18;;;3.53;;
41289;SDS011;36117;46.680;11.154;2022-10-24T05:20:05;11.40;;;3.38;;
41289;SDS011;36117;46.680;11.154;2022-10-24T05:22:32;8.85;;;4.15;;
41289;SDS011;36117;46.680;11.154;2022-10-24T05:24:57;7.57;;;3.63;;
41289;SDS011;36117;46.680;11.154;2022-10-24T05:27:25;4.53;;;3.47;;
41289;SDS011;36117;46.680;11.154;2022-10-24T05:29:51;5.93;;;3.33;;
41289;SDS011;36117;46.680;11.154;2022-10-24T05:32:18;8.60;;;3.35;;
41289;SDS011;36117;46.680;11.154;2022-10-24T05:34:45;12.50;;;3.92;;
41289;SDS011;36117;46.680;11.154;2022-10-24T05:37:11;7.00;;;3.65;;
41289;SDS011;36117;46.680;11.154;2022-10-24T05:39:36;3.88;;;2.72;;
41289;SDS011;36117;46.680;11.154;2022-10-24T05:42:03;7.07;;;3.85;;
41289;SDS011;36117;46.680;11.154;2022-10-24T05:44:29;5.40;;;2.85;;
41289;SDS011;36117;46.680;11.154;2022-10-24T05:46:54;6.22;;;3.72;;
41289;SDS011;36117;46.680;11.154;2022-10-24T05:49:20;10.25;;;3.40;;
41289;SDS011;36117;46.680;11.154;2022-10-24T05:51:46;4.60;;;2.78;;
41289;SDS011;36117;46.680;11.154;2022-10-24T05:54:12;4.60;;;2.90;;
41289;SDS011;36117;46.680;11.154;2022-10-24T05:56:38;7.40;;;3.42;;
41289;SDS011;36117;46.680;11.154;2022-10-24T05:59:04;7.60;;;3.67;;
41289;SDS011;36117;46.680;11.154;2022-10-24T06:01:30;6.50;;;3.17;;
41289;SDS011;36117;46.680;11.154;2022-10-24T06:03:56;11.55;;;3.95;;
41289;SDS011;36117;46.680;11.154;2022-10-24T06:06:22;7.65;;;2.97;;
41289;SDS011;36117;46.680;11.154;2022-10-24T06:08:48;5.07;;;2.95;;
41289;SDS011;36117;46.680;11.154;2022-10-24T06:11:15;5.38;;;3.10;;
41289;SDS011;36117;46.680;11.154;2022-10-24T06:13:41;6.40;;;3.63;;
41289;SDS011;36117;46.680;11.154;2022-10-24T06:16:08;9.23;;;3.78;;
41289;SDS011;36117;46.680;11.154;2022-10-24T06:18:35;5.75;;;3.78;;
41289;SDS011;36117;46.680;11.154;2022-10-24T06:21:02;8.20;;;3.42;;
41289;SDS011;36117;46.680;11.154;2022-10-24T06:23:30;6.68;;;4.07;;
41289;SDS011;36117;46.680;11.154;2022-10-24T06:25:56;8.43;;;4.22;;
41289;SDS011;36117;46.680;11.154;2022-10-24T06:28:22;9.23;;;4.47;;
41289;SDS011;36117;46.680;11.154;2022-10-24T06:30:49;9.30;;;5.53;;
41289;SDS011;36117;46.680;11.154;2022-10-24T06:33:16;6.10;;;3.20;;
41289;SDS011;36117;46.680;11.154;2022-10-24T06:35:42;7.88;;;3.45;;
41289;SDS011;36117;46.680;11.154;2022-10-24T06:38:08;5.35;;;3.33;;
41289;SDS011;36117;46.680;11.154;2022-10-24T06:40:35;8.18;;;3.55;;
41289;SDS011;36117;46.680;11.154;2022-10-24T06:43:03;8.75;;;4.10;;
41289;SDS011;36117;46.680;11.154;2022-10-24T06:45:29;8.52;;;4.10;;
41289;SDS011;36117;46.680;11.154;2022-10-24T06:47:55;9.90;;;4.25;;
41289;SDS011;36117;46.680;11.154;2022-10-24T06:50:21;5.40;;;3.33;;
41289;SDS011;36117;46.680;11.154;2022-10-24T06:52:47;8.95;;;4.20;;
41289;SDS011;36117;46.680;11.154;2022-10-24T06:55:13;7.93;;;3.67;;
41289;SDS011;36117;46.680;11.154;2022-10-24T06:57:39;7.35;;;3.63;;
41289;SDS011;36117;46.680;11.154;2022-10-24T07:00:05;7.13;;;3.92;;
41289;SDS011;36117;46.680;11.154;2022-10-24T07:02:32;9.80;;;5.00;;
41289;SDS011;36117;46.680;11.154;2022-10-24T07:04:59;8.80;;;4.65;;
41289;SDS011;36117;46.680;11.154;2022-10-24T07:07:27;10.65;;;5.13;;
41289;SDS011;36117;46.680;11.154;2022-10-24T07:09:56;6.50;;;4.28;;
41289;SDS011;36117;46.680;11.154;2022-10-24T07:12:22;18.70;;;3.78;;
41289;SDS011;36117;46.680;11.154;2022-10-24T07:14:48;8.65;;;3.67;;
41289;SDS011;36117;46.680;11.154;2022-10-24T07:17:15;9.13;;;3.78;;
41289;SDS011;36117;46.680;11.154;2022-10-24T07:19:42;7.22;;;4.25;;
41289;SDS011;36117;46.680;11.154;2022-10-24T07:22:08;5.15;;;3.58;;
41289;SDS011;36117;46.680;11.154;2022-10-24T07:24:34;12.57;;;4.80;;
41289;SDS011;36117;46.680;11.154;2022-10-24T07:27:00;9.23;;;3.92;;
41289;SDS011;36117;46.680;11.154;2022-10-24T07:29:26;7.65;;;4.03;;
41289;SDS011;36117;46.680;11.154;2022-10-24T07:31:52;7.35;;;4.63;;
41289;SDS011;36117;46.680;11.154;2022-10-24T07:34:19;7.55;;;4.65;;
41289;SDS011;36117;46.680;11.154;2022-10-24T07:36:45;9.05;;;4.40;;
41289;SDS011;36117;46.680;11.154;2022-10-24T07:39:13;9.00;;;3.58;;
41289;SDS011;36117;46.680;11.154;2022-10-24T07:41:39;8.57;;;4.20;;
41289;SDS011;36117;46.680;11.154;2022-10-24T07:44:06;8.85;;;3.60;;
41289;SDS011;36117;46.680;11.154;2022-10-24T07:46:32;7.75;;;3.33;;
41289;SDS011;36117;46.680;11.154;2022-10-24T07:48:58;9.23;;;3.47;;
41289;SDS011;36117;46.680;11.154;2022-10-24T07:51:23;8.82;;;3.85;;
41289;SDS011;36117;46.680;11.154;2022-10-24T07:53:52;7.70;;;4.22;;
41289;SDS011;36117;46.680;11.154;2022-10-24T07:56:18;11.52;;;3.47;;
41289;SDS011;36117;46.680;11.154;2022-10-24T07:58:44;9.88;;;3.60;;
41289;SDS011;36117;46.680;11.154;2022-10-24T08:01:12;8.80;;;3.33;;
41289;SDS011;36117;46.680;11.154;2022-10-24T08:03:42;5.38;;;3.25;;
41289;SDS011;36117;46.680;11.154;2022-10-24T08:06:10;9.57;;;3.55;;
41289;SDS011;36117;46.680;11.154;2022-10-24T08:08:39;10.07;;;3.67;;
41289;SDS011;36117;46.680;11.154;2022-10-24T08:11:08;7.35;;;3.80;;
41289;SDS011;36117;46.680;11.154;2022-10-24T08:13:36;21.88;;;7.13;;
41289;SDS011;36117;46.680;11.154;2022-10-24T08:16:03;14.65;;;5.47;;
41289;SDS011;36117;46.680;11.154;2022-10-24T08:18:31;12.95;;;4.88;;
41289;SDS011;36117;46.680;11.154;2022-10-24T08:20:59;11.75;;;4.82;;
41289;SDS011;36117;46.680;11.154;2022-10-24T08:23:27;8.13;;;4.53;;
41289;SDS011;36117;46.680;11.154;2022-10-24T08:25:53;8.63;;;4.60;;
41289;SDS011;36117;46.680;11.154;2022-10-24T08:28:19;7.47;;;4.10;;
41289;SDS011;36117;46.680;11.154;2022-10-24T08:30:53;8.43;;;3.80;;
41289;SDS011;36117;46.680;11.154;2022-10-24T08:33:29;10.27;;;3.38;;
41289;SDS011;36117;46.680;11.154;2022-10-24T08:35:56;9.75;;;4.90;;
41289;SDS011;36117;46.680;11.154;2022-10-24T08:38:24;6.55;;;4.05;;
41289;SDS011;36117;46.680;11.154;2022-10-24T08:40:51;7.88;;;3.40;;
41289;SDS011;36117;46.680;11.154;2022-10-24T08:43:17;7.00;;;3.28;;
41289;SDS011;36117;46.680;11.154;2022-10-24T08:48:22;9.07;;;3.53;;
41289;SDS011;36117;46.680;11.154;2022-10-24T08:50:58;5.90;;;3.30;;
41289;SDS011;36117;46.680;11.154;2022-10-24T08:53:32;9.63;;;3.67;;
41289;SDS011;36117;46.680;11.154;2022-10-24T08:55:58;6.32;;;3.67;;
41289;SDS011;36117;46.680;11.154;2022-10-24T09:00:52;14.85;;;4.90;;
41289;SDS011;36117;46.680;11.154;2022-10-24T09:06:05;9.48;;;4.40;;
41289;SDS011;36117;46.680;11.154;2022-10-24T09:08:40;16.65;;;7.38;;
41289;SDS011;36117;46.680;11.154;2022-10-24T09:11:12;8.45;;;4.57;;
41289;SDS011;36117;46.680;11.154;2022-10-24T09:13:46;9.13;;;4.03;;
41289;SDS011;36117;46.680;11.154;2022-10-24T09:16:13;8.82;;;3.97;;
41289;SDS011;36117;46.680;11.154;2022-10-24T09:18:42;9.98;;;3.90;;
41289;SDS011;36117;46.680;11.154;2022-10-24T09:21:10;7.95;;;4.07;;
41289;SDS011;36117;46.680;11.154;2022-10-24T09:23:39;8.25;;;3.63;;
41289;SDS011;36117;46.680;11.154;2022-10-24T09:26:07;6.78;;;3.55;;
41289;SDS011;36117;46.680;11.154;2022-10-24T09:28:39;10.13;;;3.53;;
41289;SDS011;36117;46.680;11.154;2022-10-24T09:31:17;11.73;;;5.28;;
41289;SDS011;36117;46.680;11.154;2022-10-24T09:33:45;47.42;;;18.65;;
41289;SDS011;36117;46.680;11.154;2022-10-24T09:36:14;11.95;;;5.55;;
41289;SDS011;36117;46.680;11.154;2022-10-24T09:38:41;8.32;;;4.28;;
41289;SDS011;36117;46.680;11.154;2022-10-24T09:41:24;10.10;;;4.88;;
41289;SDS011;36117;46.680;11.154;2022-10-24T09:43:57;9.70;;;5.22;;
41289;SDS011;36117;46.680;11.154;2022-10-24T09:46:35;11.57;;;5.30;;
41289;SDS011;36117;46.680;11.154;2022-10-24T09:54:40;19.58;;;8.40;;
41289;SDS011;36117;46.680;11.154;2022-10-24T09:59:36;8.30;;;4.85;;
41289;SDS011;36117;46.680;11.154;2022-10-24T10:02:29;13.88;;;5.40;;
41289;SDS011;36117;46.680;11.154;2022-10-24T10:07:31;8.40;;;5.05;;
41289;SDS011;36117;46.680;11.154;2022-10-24T10:10:21;7.97;;;4.85;;
41289;SDS011;36117;46.680;11.154;2022-10-24T10:23:39;8.95;;;5.60;;
41289;SDS011;36117;46.680;11.154;2022-10-24T10:28:38;9.35;;;5.38;;
41289;SDS011;36117;46.680;11.154;2022-10-24T10:31:28;8.10;;;4.85;;
41289;SDS011;36117;46.680;11.154;2022-10-24T10:42:46;11.48;;;4.85;;
41289;SDS011;36117;46.680;11.154;2022-10-24T10:45:45;9.98;;;5.05;;
41289;SDS011;36117;46.680;11.154;2022-10-24T10:56:33;10.10;;;6.43;;
41289;SDS011;36117;46.680;11.154;2022-10-24T10:59:18;13.90;;;6.40;;
41289;SDS011;36117;46.680;11.154;2022-10-24T11:09:56;14.13;;;4.45;;
41289;SDS011;36117;46.680;11.154;2022-10-24T11:12:36;12.97;;;4.67;;
41289;SDS011;36117;46.680;11.154;2022-10-24T11:15:07;10.60;;;4.75;;
41289;SDS011;36117;46.680;11.154;2022-10-24T11:20:48;11.52;;;5.35;;
41289;SDS011;36117;46.680;11.154;2022-10-24T11:24:02;11.65;;;5.15;;
41289;SDS011;36117;46.680;11.154;2022-10-24T11:26:20;7.43;;;5.35;;
41289;SDS011;36117;46.680;11.154;2022-10-24T11:34:13;15.35;;;7.10;;
41289;SDS011;36117;46.680;11.154;2022-10-24T11:36:50;14.73;;;8.40;;
41289;SDS011;36117;46.680;11.154;2022-10-24T11:39:33;42.85;;;19.75;;
41289;SDS011;36117;46.680;11.154;2022-10-24T11:49:52;10.40;;;4.82;;
41289;SDS011;36117;46.680;11.154;2022-10-24T11:52:43;10.13;;;5.63;;
41289;SDS011;36117;46.680;11.154;2022-10-24T11:55:23;7.47;;;4.95;;
41289;SDS011;36117;46.680;11.154;2022-10-24T11:57:53;5.68;;;3.47;;
41289;SDS011;36117;46.680;11.154;2022-10-24T12:00:24;7.40;;;4.13;;
41289;SDS011;36117;46.680;11.154;2022-10-24T12:08:57;8.43;;;4.78;;
41289;SDS011;36117;46.680;11.154;2022-10-24T12:19:10;15.65;;;5.30;;
41289;SDS011;36117;46.680;11.154;2022-10-24T12:21:41;12.05;;;5.28;;
41289;SDS011;36117;46.680;11.154;2022-10-24T12:24:28;20.08;;;6.57;;
41289;SDS011;36117;46.680;11.154;2022-10-24T12:27:03;12.63;;;6.32;;
41289;SDS011;36117;46.680;11.154;2022-10-24T12:29:32;9.18;;;5.30;;
41289;SDS011;36117;46.680;11.154;2022-10-24T12:34:57;11.77;;;5.50;;
41289;SDS011;36117;46.680;11.154;2022-10-24T12:39:50;15.60;;;7.85;;
41289;SDS011;36117;46.680;11.154;2022-10-24T12:44:49;16.15;;;7.57;;
41289;SDS011;36117;46.680;11.154;2022-10-24T12:47:26;14.25;;;7.50;;
41289;SDS011;36117;46.680;11.154;2022-10-24T12:52:49;14.82;;;7.15;;
41289;SDS011;36117;46.680;11.154;2022-10-24T12:58:02;10.90;;;6.30;;
41289;SDS011;36117;46.680;11.154;2022-10-24T13:00:51;16.08;;;8.77;;
41289;SDS011;36117;46.680;11.154;2022-10-24T13:03:46;25.63;;;11.70;;
41289;SDS011;36117;46.680;11.154;2022-10-24T13:09:57;21.67;;;8.55;;
41289;SDS011;36117;46.680;11.154;2022-10-24T13:21:29;23.33;;;8.60;;
41289;SDS011;36117;46.680;11.154;2022-10-24T13:26:45;15.80;;;6.32;;
41289;SDS011;36117;46.680;11.154;2022-10-24T13:31:49;12.52;;;5.53;;
41289;SDS011;36117;46.680;11.154;2022-10-24T13:34:16;12.98;;;5.82;;
41289;SDS011;36117;46.680;11.154;2022-10-24T13:36:44;22.92;;;8.27;;
41289;SDS011;36117;46.680;11.154;2022-10-24T13:39:17;19.15;;;8.38;;
41289;SDS011;36117;46.680;11.154;2022-10-24T13:41:48;13.18;;;6.97;;
41289;SDS011;36117;46.680;11.154;2022-10-24T13:44:31;14.82;;;6.25;;
41289;SDS011;36117;46.680;11.154;2022-10-24T13:47:16;17.35;;;7.97;;
41289;SDS011;36117;46.680;11.154;2022-10-24T13:52:51;46.55;;;20.08;;
41289;SDS011;36117;46.680;11.154;2022-10-24T14:01:03;26.98;;;11.95;;
41289;SDS011;36117;46.680;11.154;2022-10-24T14:03:32;22.95;;;11.40;;
41289;SDS011;36117;46.680;11.154;2022-10-24T14:06:02;17.15;;;9.07;;
41289;SDS011;36117;46.680;11.154;2022-10-24T14:08:36;20.50;;;10.32;;
41289;SDS011;36117;46.680;11.154;2022-10-24T14:11:08;21.75;;;9.50;;
41289;SDS011;36117;46.680;11.154;2022-10-24T14:13:41;16.98;;;9.68;;
41289;SDS011;36117;46.680;11.154;2022-10-24T14:16:11;13.05;;;7.50;;
41289;SDS011;36117;46.680;11.154;2022-10-24T14:18:38;15.50;;;8.07;;
41289;SDS011;36117;46.680;11.154;2022-10-24T14:21:12;19.67;;;9.48;;
41289;SDS011;36117;46.680;11.154;2022-10-24T14:23:52;14.93;;;7.10;;
41289;SDS011;36117;46.680;11.154;2022-10-24T14:26:22;16.90;;;7.55;;
41289;SDS011;36117;46.680;11.154;2022-10-24T14:28:54;13.13;;;7.57;;
41289;SDS011;36117;46.680;11.154;2022-10-24T14:31:27;15.52;;;6.25;;
41289;SDS011;36117;46.680;11.154;2022-10-24T14:34:03;10.48;;;6.00;;
41289;SDS011;36117;46.680;11.154;2022-10-24T14:36:31;16.45;;;7.07;;
41289;SDS011;36117;46.680;11.154;2022-10-24T14:39:00;16.67;;;5.90;;
41289;SDS011;36117;46.680;11.154;2022-10-24T14:41:33;18.15;;;6.50;;
41289;SDS011;36117;46.680;11.154;2022-10-24T14:44:04;12.70;;;7.25;;
41289;SDS011;36117;46.680;11.154;2022-10-24T14:46:35;12.90;;;6.85;;
41289;SDS011;36117;46.680;11.154;2022-10-24T14:54:34;11.85;;;6.00;;
41289;SDS011;36117;46.680;11.154;2022-10-24T14:57:01;12.02;;;5.60;;
41289;SDS011;36117;46.680;11.154;2022-10-24T14:59:35;12.60;;;5.97;;
41289;SDS011;36117;46.680;11.154;2022-10-24T15:04:49;16.42;;;7.20;;
41289;SDS011;36117;46.680;11.154;2022-10-24T15:09:57;19.80;;;7.03;;
41289;SDS011;36117;46.680;11.154;2022-10-24T15:17:50;13.70;;;6.22;;
41289;SDS011;36117;46.680;11.154;2022-10-24T15:20:18;10.82;;;6.03;;
41289;SDS011;36117;46.680;11.154;2022-10-24T15:22:51;14.93;;;5.32;;
41289;SDS011;36117;46.680;11.154;2022-10-24T15:27:49;14.50;;;6.03;;
41289;SDS011;36117;46.680;11.154;2022-10-24T15:30:23;26.08;;;8.57;;
41289;SDS011;36117;46.680;11.154;2022-10-24T15:32:50;14.07;;;7.00;;
41289;SDS011;36117;46.680;11.154;2022-10-24T15:35:16;14.82;;;7.57;;
41289;SDS011;36117;46.680;11.154;2022-10-24T15:37:54;21.85;;;8.32;;
41289;SDS011;36117;46.680;11.154;2022-10-24T15:40:27;13.60;;;7.47;;
41289;SDS011;36117;46.680;11.154;2022-10-24T15:42:55;18.83;;;7.50;;
41289;SDS011;36117;46.680;11.154;2022-10-24T15:45:21;18.60;;;8.38;;
41289;SDS011;36117;46.680;11.154;2022-10-24T15:47:48;17.75;;;7.93;;
41289;SDS011;36117;46.680;11.154;2022-10-24T15:50:16;16.05;;;7.05;;
41289;SDS011;36117;46.680;11.154;2022-10-24T15:52:44;14.85;;;6.45;;
41289;SDS011;36117;46.680;11.154;2022-10-24T15:55:17;19.30;;;9.68;;
41289;SDS011;36117;46.680;11.154;2022-10-24T15:57:45;23.00;;;9.68;;
41289;SDS011;36117;46.680;11.154;2022-10-24T16:00:12;18.05;;;8.75;;
41289;SDS011;36117;46.680;11.154;2022-10-24T16:02:39;15.68;;;6.55;;
41289;SDS011;36117;46.680;11.154;2022-10-24T16:05:12;15.93;;;7.28;;
41289;SDS011;36117;46.680;11.154;2022-10-24T16:07:46;18.83;;;10.13;;
41289;SDS011;36117;46.680;11.154;2022-10-24T16:10:13;12.00;;;5.65;;
41289;SDS011;36117;46.680;11.154;2022-10-24T16:12:43;12.88;;;6.35;;
41289;SDS011;36117;46.680;11.154;2022-10-24T16:17:52;10.93;;;5.85;;
41289;SDS011;36117;46.680;11.154;2022-10-24T16:20:18;11.80;;;6.63;;
41289;SDS011;36117;46.680;11.154;2022-10-24T16:22:44;18.33;;;8.10;;
41289;SDS011;36117;46.680;11.154;2022-10-24T16:25:15;20.67;;;7.75;;
41289;SDS011;36117;46.680;11.154;2022-10-24T16:27:43;19.92;;;7.85;;
41289;SDS011;36117;46.680;11.154;2022-10-24T16:30:10;16.15;;;8.02;;
41289;SDS011;36117;46.680;11.154;2022-10-24T16:32:37;25.73;;;8.85;;
41289;SDS011;36117;46.680;11.154;2022-10-24T16:35:03;24.00;;;8.73;;
41289;SDS011;36117;46.680;11.154;2022-10-24T16:37:29;17.67;;;9.05;;
41289;SDS011;36117;46.680;11.154;2022-10-24T16:39:54;28.90;;;9.57;;
41289;SDS011;36117;46.680;11.154;2022-10-24T16:42:20;21.90;;;8.93;;
41289;SDS011;36117;46.680;11.154;2022-10-24T16:44:48;25.13;;;9.90;;
41289;SDS011;36117;46.680;11.154;2022-10-24T16:47:14;22.17;;;10.10;;
41289;SDS011;36117;46.680;11.154;2022-10-24T16:49:40;21.80;;;9.50;;
41289;SDS011;36117;46.680;11.154;2022-10-24T16:52:06;24.67;;;9.27;;
41289;SDS011;36117;46.680;11.154;2022-10-24T16:54:32;22.85;;;9.93;;
41289;SDS011;36117;46.680;11.154;2022-10-24T16:56:57;25.35;;;10.00;;
41289;SDS011;36117;46.680;11.154;2022-10-24T16:59:23;23.35;;;10.82;;
41289;SDS011;36117;46.680;11.154;2022-10-24T17:01:50;20.17;;;10.60;;
41289;SDS011;36117;46.680;11.154;2022-10-24T17:04:16;22.05;;;11.48;;
41289;SDS011;36117;46.680;11.154;2022-10-24T17:06:41;25.20;;;9.70;;
41289;SDS011;36117;46.680;11.154;2022-10-24T17:09:07;16.67;;;9.70;;
41289;SDS011;36117;46.680;11.154;2022-10-24T17:11:33;17.63;;;9.35;;
41289;SDS011;36117;46.680;11.154;2022-10-24T17:13:59;14.25;;;8.05;;
41289;SDS011;36117;46.680;11.154;2022-10-24T17:16:24;17.33;;;8.85;;
41289;SDS011;36117;46.680;11.154;2022-10-24T17:18:51;21.85;;;9.27;;
41289;SDS011;36117;46.680;11.154;2022-10-24T17:21:18;18.98;;;10.18;;
41289;SDS011;36117;46.680;11.154;2022-10-24T17:23:49;25.67;;;11.10;;
41289;SDS011;36117;46.680;11.154;2022-10-24T17:26:15;20.35;;;9.80;;
41289;SDS011;36117;46.680;11.154;2022-10-24T17:28:41;20.95;;;9.73;;
41289;SDS011;36117;46.680;11.154;2022-10-24T17:31:11;22.85;;;11.60;;
41289;SDS011;36117;46.680;11.154;2022-10-24T17:33:38;23.33;;;11.43;;
41289;SDS011;36117;46.680;11.154;2022-10-24T17:36:06;29.33;;;11.88;;